sensor_id;sensor_type;location;lat;lon;timestamp;pressure;altitude;pressure_sealevel;temperature;humidity
30636;BME280;17400;52.392;9.750;2023-01-28T00:02:05;102207.91;;;3.10;89.95
30636;BME280;17400;52.392;9.750;2023-01-28T00:04:33;102206.69;;;3.14;91.00
30636;BME280;17400;52.392;9.750;2023-01-28T00:07:01;102210.09;;;3.16;89.73
30636;BME280;17400;52.392;9.750;2023-01-28T00:09:29;102217.06;;;3.19;88.34
30636;BME280;17400;52.392;9.750;2023-01-28T00:11:56;102217.94;;;3.19;87.82
30636;BME280;17400;52.392;9.750;2023-01-28T00:14:24;102211.19;;;3.13;87.18
30636;BME280;17400;52.392;9.750;2023-01-28T00:16:52;102217.53;;;3.12;87.78
30636;BME280;17400;52.392;9.750;2023-01-28T00:19:21;102208.00;;;3.08;88.58
30636;BME280;17400;52.392;9.750;2023-01-28T00:21:48;102204.81;;;3.03;89.45
30636;BME280;17400;52.392;9.750;2023-01-28T00:24:16;102205.66;;;3.04;90.10
30636;BME280;17400;52.392;9.750;2023-01-28T00:26:45;102197.31;;;3.08;91.13
30636;BME280;17400;52.392;9.750;2023-01-28T00:29:16;102193.22;;;3.03;89.69
30636;BME280;17400;52.392;9.750;2023-01-28T00:31:43;102198.19;;;2.96;89.03
30636;BME280;17400;52.392;9.750;2023-01-28T00:34:11;102209.22;;;2.78;85.97
30636;BME280;17400;52.392;9.750;2023-01-28T00:36:40;102205.25;;;2.84;87.95
30636;BME280;17400;52.392;9.750;2023-01-28T00:39:13;102212.84;;;2.90;88.09
30636;BME280;17400;52.392;9.750;2023-01-28T00:41:41;102208.16;;;2.94;88.99
30636;BME280;17400;52.392;9.750;2023-01-28T00:44:08;102211.13;;;3.02;90.39
30636;BME280;17400;52.392;9.750;2023-01-28T00:46:37;102208.22;;;3.05;90.82
30636;BME280;17400;52.392;9.750;2023-01-28T00:49:09;102199.47;;;3.03;89.94
30636;BME280;17400;52.392;9.750;2023-01-28T00:51:37;102204.16;;;2.99;90.18
30636;BME280;17400;52.392;9.750;2023-01-28T00:54:06;102202.34;;;3.00;89.66
30636;BME280;17400;52.392;9.750;2023-01-28T00:56:36;102205.97;;;2.99;88.98
30636;BME280;17400;52.392;9.750;2023-01-28T00:59:04;102201.50;;;2.99;89.81
30636;BME280;17400;52.392;9.750;2023-01-28T01:01:33;102203.75;;;2.93;87.33
30636;BME280;17400;52.392;9.750;2023-01-28T01:04:01;102204.31;;;2.85;86.84
30636;BME280;17400;52.392;9.750;2023-01-28T01:06:31;102204.94;;;2.89;87.77
30636;BME280;17400;52.392;9.750;2023-01-28T01:08:59;102199.13;;;2.95;88.45
30636;BME280;17400;52.392;9.750;2023-01-28T01:11:28;102200.97;;;2.94;87.50
30636;BME280;17400;52.392;9.750;2023-01-28T01:13:58;102204.47;;;2.95;87.43
30636;BME280;17400;52.392;9.750;2023-01-28T01:16:28;102199.38;;;2.79;84.63
30636;BME280;17400;52.392;9.750;2023-01-28T01:18:59;102197.78;;;2.76;85.86
30636;BME280;17400;52.392;9.750;2023-01-28T01:21:27;102196.94;;;2.76;84.59
30636;BME280;17400;52.392;9.750;2023-01-28T01:23:55;102199.72;;;2.74;85.59
30636;BME280;17400;52.392;9.750;2023-01-28T01:26:24;102195.50;;;2.83;86.90
30636;BME280;17400;52.392;9.750;2023-01-28T01:28:54;102203.22;;;2.88;87.09
30636;BME280;17400;52.392;9.750;2023-01-28T01:31:24;102198.28;;;2.94;87.00
30636;BME280;17400;52.392;9.750;2023-01-28T01:33:55;102200.31;;;2.91;84.95
30636;BME280;17400;52.392;9.750;2023-01-28T01:36:23;102201.28;;;2.90;85.24
30636;BME280;17400;52.392;9.750;2023-01-28T01:38:54;102209.94;;;2.93;86.39
30636;BME280;17400;52.392;9.750;2023-01-28T01:41:25;102211.03;;;2.91;85.11
30636;BME280;17400;52.392;9.750;2023-01-28T01:43:56;102213.28;;;2.84;84.07
30636;BME280;17400;52.392;9.750;2023-01-28T01:46:32;102214.34;;;2.81;84.19
30636;BME280;17400;52.392;9.750;2023-01-28T01:49:07;102214.69;;;2.77;85.02
30636;BME280;17400;52.392;9.750;2023-01-28T01:51:40;102213.50;;;2.81;85.79
30636;BME280;17400;52.392;9.750;2023-01-28T01:54:08;102217.78;;;2.83;85.97
30636;BME280;17400;52.392;9.750;2023-01-28T01:56:39;102209.66;;;2.85;86.30
30636;BME280;17400;52.392;9.750;2023-01-28T01:59:11;102217.78;;;2.83;86.88
30636;BME280;17400;52.392;9.750;2023-01-28T02:01:41;102222.72;;;2.77;86.33
30636;BME280;17400;52.392;9.750;2023-01-28T02:04:14;102219.16;;;2.76;86.35
30636;BME280;17400;52.392;9.750;2023-01-28T02:06:46;102224.97;;;2.70;84.21
30636;BME280;17400;52.392;9.750;2023-01-28T02:09:22;102219.75;;;2.69;83.45
30636;BME280;17400;52.392;9.750;2023-01-28T02:11:53;102219.63;;;2.70;82.66
30636;BME280;17400;52.392;9.750;2023-01-28T02:14:28;102226.47;;;2.74;82.32
30636;BME280;17400;52.392;9.750;2023-01-28T02:16:58;102225.81;;;2.71;82.01
30636;BME280;17400;52.392;9.750;2023-01-28T02:19:31;102219.75;;;2.69;81.68
30636;BME280;17400;52.392;9.750;2023-01-28T02:22:07;102232.34;;;2.66;83.10
30636;BME280;17400;52.392;9.750;2023-01-28T02:25:10;102219.94;;;2.65;83.29
30636;BME280;17400;52.392;9.750;2023-01-28T02:27:57;102236.63;;;2.69;82.13
30636;BME280;17400;52.392;9.750;2023-01-28T02:30:30;102229.97;;;2.75;83.18
30636;BME280;17400;52.392;9.750;2023-01-28T02:33:04;102227.84;;;2.80;84.21
30636;BME280;17400;52.392;9.750;2023-01-28T02:35:41;102232.97;;;2.83;83.57
30636;BME280;17400;52.392;9.750;2023-01-28T02:38:13;102222.72;;;2.77;83.14
30636;BME280;17400;52.392;9.750;2023-01-28T02:40:47;102230.09;;;2.73;84.01
30636;BME280;17400;52.392;9.750;2023-01-28T02:43:34;102221.31;;;2.71;84.84
30636;BME280;17400;52.392;9.750;2023-01-28T02:46:16;102225.50;;;2.75;85.63
30636;BME280;17400;52.392;9.750;2023-01-28T02:49:04;102212.44;;;2.71;85.42
30636;BME280;17400;52.392;9.750;2023-01-28T02:51:42;102218.22;;;2.77;85.97
30636;BME280;17400;52.392;9.750;2023-01-28T02:54:18;102209.47;;;2.75;84.83
30636;BME280;17400;52.392;9.750;2023-01-28T02:56:55;102215.53;;;2.64;83.71
30636;BME280;17400;52.392;9.750;2023-01-28T02:59:34;102218.66;;;2.58;82.88
30636;BME280;17400;52.392;9.750;2023-01-28T03:02:15;102212.34;;;2.59;81.73
30636;BME280;17400;52.392;9.750;2023-01-28T03:04:50;102212.03;;;2.64;82.64
30636;BME280;17400;52.392;9.750;2023-01-28T03:07:22;102209.53;;;2.74;83.24
30636;BME280;17400;52.392;9.750;2023-01-28T03:09:53;102208.69;;;2.73;81.26
30636;BME280;17400;52.392;9.750;2023-01-28T03:12:27;102212.78;;;2.66;81.75
30636;BME280;17400;52.392;9.750;2023-01-28T03:15:17;102208.06;;;2.70;83.21
30636;BME280;17400;52.392;9.750;2023-01-28T03:18:08;102209.88;;;2.69;82.88
30636;BME280;17400;52.392;9.750;2023-01-28T03:21:00;102206.69;;;2.64;81.38
30636;BME280;17400;52.392;9.750;2023-01-28T03:26:55;102200.25;;;2.66;82.49
30636;BME280;17400;52.392;9.750;2023-01-28T03:29:42;102193.31;;;2.64;78.81
30636;BME280;17400;52.392;9.750;2023-01-28T03:32:31;102187.13;;;2.63;79.49
30636;BME280;17400;52.392;9.750;2023-01-28T03:35:20;102192.88;;;2.70;81.51
30636;BME280;17400;52.392;9.750;2023-01-28T03:38:08;102200.44;;;2.76;81.28
30636;BME280;17400;52.392;9.750;2023-01-28T03:40:50;102197.25;;;2.71;80.26
30636;BME280;17400;52.392;9.750;2023-01-28T03:43:17;102200.25;;;2.66;79.92
30636;BME280;17400;52.392;9.750;2023-01-28T03:45:48;102203.06;;;2.65;80.43
30636;BME280;17400;52.392;9.750;2023-01-28T03:48:21;102211.19;;;2.63;80.41
30636;BME280;17400;52.392;9.750;2023-01-28T03:50:50;102206.69;;;2.64;80.16
30636;BME280;17400;52.392;9.750;2023-01-28T03:53:18;102207.88;;;2.60;78.90
30636;BME280;17400;52.392;9.750;2023-01-28T03:55:47;102216.13;;;2.57;80.13
30636;BME280;17400;52.392;9.750;2023-01-28T03:58:17;102208.41;;;2.65;80.80
30636;BME280;17400;52.392;9.750;2023-01-28T04:00:45;102209.25;;;2.65;80.61
30636;BME280;17400;52.392;9.750;2023-01-28T04:03:15;102216.72;;;2.60;80.84
30636;BME280;17400;52.392;9.750;2023-01-28T04:05:46;102215.34;;;2.55;80.84
30636;BME280;17400;52.392;9.750;2023-01-28T04:08:23;102220.59;;;2.56;79.49
30636;BME280;17400;52.392;9.750;2023-01-28T04:10:51;102218.88;;;2.55;79.29
30636;BME280;17400;52.392;9.750;2023-01-28T04:13:20;102222.94;;;2.61;80.40
30636;BME280;17400;52.392;9.750;2023-01-28T04:15:48;102224.84;;;2.59;80.01
30636;BME280;17400;52.392;9.750;2023-01-28T04:18:16;102233.66;;;2.61;81.93
30636;BME280;17400;52.392;9.750;2023-01-28T04:20:47;102229.47;;;2.57;81.63
30636;BME280;17400;52.392;9.750;2023-01-28T04:23:15;102241.84;;;2.58;80.82
30636;BME280;17400;52.392;9.750;2023-01-28T04:25:43;102235.13;;;2.52;81.90
30636;BME280;17400;52.392;9.750;2023-01-28T04:28:10;102239.28;;;2.43;82.00
30636;BME280;17400;52.392;9.750;2023-01-28T04:30:40;102233.75;;;2.46;82.25
30636;BME280;17400;52.392;9.750;2023-01-28T04:33:07;102243.69;;;2.44;83.17
30636;BME280;17400;52.392;9.750;2023-01-28T04:35:36;102246.25;;;2.46;80.95
30636;BME280;17400;52.392;9.750;2023-01-28T04:38:05;102249.97;;;2.43;81.63
30636;BME280;17400;52.392;9.750;2023-01-28T04:40:34;102245.63;;;2.42;81.83
30636;BME280;17400;52.392;9.750;2023-01-28T04:43:01;102246.34;;;2.44;82.22
30636;BME280;17400;52.392;9.750;2023-01-28T04:45:29;102250.53;;;2.48;82.66
30636;BME280;17400;52.392;9.750;2023-01-28T04:47:57;102244.44;;;2.46;82.01
30636;BME280;17400;52.392;9.750;2023-01-28T04:50:25;102252.25;;;2.49;81.85
30636;BME280;17400;52.392;9.750;2023-01-28T04:52:53;102244.75;;;2.55;82.15
30636;BME280;17400;52.392;9.750;2023-01-28T04:55:23;102248.19;;;2.57;81.31
30636;BME280;17400;52.392;9.750;2023-01-28T04:57:51;102247.22;;;2.45;80.65
30636;BME280;17400;52.392;9.750;2023-01-28T05:00:19;102252.03;;;2.40;80.65
30636;BME280;17400;52.392;9.750;2023-01-28T05:02:47;102255.44;;;2.42;81.92
30636;BME280;17400;52.392;9.750;2023-01-28T05:05:15;102252.34;;;2.48;81.46
30636;BME280;17400;52.392;9.750;2023-01-28T05:07:50;102251.06;;;2.54;81.48
30636;BME280;17400;52.392;9.750;2023-01-28T05:10:18;102252.25;;;2.49;79.98
30636;BME280;17400;52.392;9.750;2023-01-28T05:12:48;102250.41;;;2.50;81.30
30636;BME280;17400;52.392;9.750;2023-01-28T05:15:19;102255.13;;;2.46;81.41
30636;BME280;17400;52.392;9.750;2023-01-28T05:17:47;102255.25;;;2.45;80.97
30636;BME280;17400;52.392;9.750;2023-01-28T05:20:15;102257.03;;;2.44;82.94
30636;BME280;17400;52.392;9.750;2023-01-28T05:22:43;102246.25;;;2.46;82.81
30636;BME280;17400;52.392;9.750;2023-01-28T05:25:10;102249.03;;;2.44;82.17
30636;BME280;17400;52.392;9.750;2023-01-28T05:27:39;102248.06;;;2.45;82.81
30636;BME280;17400;52.392;9.750;2023-01-28T05:30:09;102247.31;;;2.43;82.54
30636;BME280;17400;52.392;9.750;2023-01-28T05:32:37;102249.78;;;2.46;82.73
30636;BME280;17400;52.392;9.750;2023-01-28T05:35:05;102237.38;;;2.45;80.29
30636;BME280;17400;52.392;9.750;2023-01-28T05:37:33;102241.00;;;2.44;80.29
30636;BME280;17400;52.392;9.750;2023-01-28T05:40:01;102238.34;;;2.44;80.68
30636;BME280;17400;52.392;9.750;2023-01-28T05:42:29;102239.91;;;2.34;78.59
30636;BME280;17400;52.392;9.750;2023-01-28T05:44:58;102234.06;;;2.29;79.48
30636;BME280;17400;52.392;9.750;2023-01-28T05:47:30;102235.56;;;2.33;79.06
30636;BME280;17400;52.392;9.750;2023-01-28T05:49:59;102240.25;;;2.29;80.01
30636;BME280;17400;52.392;9.750;2023-01-28T05:52:31;102247.09;;;2.33;79.54
30636;BME280;17400;52.392;9.750;2023-01-28T05:55:00;102243.13;;;2.39;80.19
30636;BME280;17400;52.392;9.750;2023-01-28T05:57:28;102246.78;;;2.38;79.04
30636;BME280;17400;52.392;9.750;2023-01-28T05:59:56;102248.81;;;2.35;79.21
30636;BME280;17400;52.392;9.750;2023-01-28T06:02:23;102243.56;;;2.33;78.35
30636;BME280;17400;52.392;9.750;2023-01-28T06:04:53;102246.25;;;2.33;78.88
30636;BME280;17400;52.392;9.750;2023-01-28T06:07:22;102251.69;;;2.31;78.49
30636;BME280;17400;52.392;9.750;2023-01-28T06:09:50;102246.00;;;2.23;78.24
30636;BME280;17400;52.392;9.750;2023-01-28T06:12:18;102246.84;;;2.11;75.69
30636;BME280;17400;52.392;9.750;2023-01-28T06:14:45;102251.75;;;2.04;78.24
30636;BME280;17400;52.392;9.750;2023-01-28T06:17:13;102244.69;;;2.03;76.97
30636;BME280;17400;52.392;9.750;2023-01-28T06:19:41;102243.94;;;2.01;76.81
30636;BME280;17400;52.392;9.750;2023-01-28T06:22:11;102249.53;;;2.11;78.67
30636;BME280;17400;52.392;9.750;2023-01-28T06:24:41;102242.06;;;2.16;77.88
30636;BME280;17400;52.392;9.750;2023-01-28T06:27:09;102246.88;;;2.24;78.84
30636;BME280;17400;52.392;9.750;2023-01-28T06:29:37;102244.63;;;2.17;76.65
30636;BME280;17400;52.392;9.750;2023-01-28T06:32:07;102253.91;;;2.25;77.46
30636;BME280;17400;52.392;9.750;2023-01-28T06:34:35;102255.97;;;2.34;78.58
30636;BME280;17400;52.392;9.750;2023-01-28T06:37:04;102255.53;;;2.40;77.94
30636;BME280;17400;52.392;9.750;2023-01-28T06:39:33;102254.88;;;2.37;76.68
30636;BME280;17400;52.392;9.750;2023-01-28T06:42:01;102249.88;;;2.32;75.49
30636;BME280;17400;52.392;9.750;2023-01-28T06:44:29;102248.59;;;2.38;76.40
30636;BME280;17400;52.392;9.750;2023-01-28T06:46:57;102249.25;;;2.41;77.54
30636;BME280;17400;52.392;9.750;2023-01-28T06:49:25;102261.53;;;2.44;76.67
30636;BME280;17400;52.392;9.750;2023-01-28T06:51:54;102260.03;;;2.40;75.63
30636;BME280;17400;52.392;9.750;2023-01-28T06:54:22;102249.88;;;2.32;74.46
30636;BME280;17400;52.392;9.750;2023-01-28T06:56:53;102249.78;;;2.33;75.79
30636;BME280;17400;52.392;9.750;2023-01-28T06:59:21;102260.69;;;2.30;76.92
30636;BME280;17400;52.392;9.750;2023-01-28T07:01:48;102262.38;;;2.31;75.29
30636;BME280;17400;52.392;9.750;2023-01-28T07:04:19;102262.28;;;2.33;75.54
30636;BME280;17400;52.392;9.750;2023-01-28T07:06:47;102259.94;;;2.41;77.00
30636;BME280;17400;52.392;9.750;2023-01-28T07:09:15;102256.38;;;2.41;76.46
30636;BME280;17400;52.392;9.750;2023-01-28T07:11:43;102260.16;;;2.38;75.29
30636;BME280;17400;52.392;9.750;2023-01-28T07:14:12;102250.84;;;2.31;74.28
30636;BME280;17400;52.392;9.750;2023-01-28T07:16:39;102249.78;;;2.33;76.48
30636;BME280;17400;52.392;9.750;2023-01-28T07:19:07;102251.25;;;2.38;77.97
30636;BME280;17400;52.392;9.750;2023-01-28T07:21:36;102254.81;;;2.38;77.68
30636;BME280;17400;52.392;9.750;2023-01-28T07:24:05;102252.88;;;2.40;77.49
30636;BME280;17400;52.392;9.750;2023-01-28T07:26:33;102262.38;;;2.44;77.47
30636;BME280;17400;52.392;9.750;2023-01-28T07:29:01;102268.91;;;2.40;76.50
30636;BME280;17400;52.392;9.750;2023-01-28T07:31:31;102268.47;;;2.33;77.11
30636;BME280;17400;52.392;9.750;2023-01-28T07:33:58;102261.22;;;2.36;77.64
30636;BME280;17400;52.392;9.750;2023-01-28T07:36:34;102263.97;;;2.34;77.66
30636;BME280;17400;52.392;9.750;2023-01-28T07:39:02;102267.00;;;2.42;78.10
30636;BME280;17400;52.392;9.750;2023-01-28T07:41:30;102267.88;;;2.56;77.04
30636;BME280;17400;52.392;9.750;2023-01-28T07:43:58;102269.13;;;2.63;76.80
30636;BME280;17400;52.392;9.750;2023-01-28T07:46:28;102269.91;;;2.65;76.39
30636;BME280;17400;52.392;9.750;2023-01-28T07:48:57;102267.00;;;2.55;74.33
30636;BME280;17400;52.392;9.750;2023-01-28T07:51:25;102277.03;;;2.39;78.01
30636;BME280;17400;52.392;9.750;2023-01-28T07:53:53;102279.16;;;2.33;76.49
30636;BME280;17400;52.392;9.750;2023-01-28T07:56:20;102281.84;;;2.33;74.63
30636;BME280;17400;52.392;9.750;2023-01-28T07:58:51;102276.50;;;2.33;75.19
30636;BME280;17400;52.392;9.750;2023-01-28T08:01:20;102283.44;;;2.36;75.67
30636;BME280;17400;52.392;9.750;2023-01-28T08:03:51;102286.22;;;2.35;74.36
30636;BME280;17400;52.392;9.750;2023-01-28T08:06:21;102280.63;;;2.25;73.47
30636;BME280;17400;52.392;9.750;2023-01-28T08:08:49;102275.63;;;2.20;74.44
30636;BME280;17400;52.392;9.750;2023-01-28T08:11:17;102286.19;;;2.22;75.62
30636;BME280;17400;52.392;9.750;2023-01-28T08:13:47;102282.97;;;2.16;75.03
30636;BME280;17400;52.392;9.750;2023-01-28T08:16:17;102294.63;;;2.15;76.13
30636;BME280;17400;52.392;9.750;2023-01-28T08:18:48;102292.59;;;2.19;76.30
30636;BME280;17400;52.392;9.750;2023-01-28T08:21:16;102305.00;;;2.20;75.52
30636;BME280;17400;52.392;9.750;2023-01-28T08:23:49;102308.22;;;2.25;76.45
30636;BME280;17400;52.392;9.750;2023-01-28T08:26:28;102318.38;;;2.20;75.61
30636;BME280;17400;52.392;9.750;2023-01-28T08:28:57;102311.53;;;2.16;75.95
30636;BME280;17400;52.392;9.750;2023-01-28T08:31:25;102315.91;;;2.17;75.86
30636;BME280;17400;52.392;9.750;2023-01-28T08:33:56;102320.38;;;2.16;75.56
30636;BME280;17400;52.392;9.750;2023-01-28T08:36:27;102312.91;;;2.22;76.51
30636;BME280;17400;52.392;9.750;2023-01-28T08:38:57;102322.66;;;2.23;74.89
30636;BME280;17400;52.392;9.750;2023-01-28T08:41:24;102324.06;;;2.28;75.54
30636;BME280;17400;52.392;9.750;2023-01-28T08:43:53;102327.69;;;2.27;75.46
30636;BME280;17400;52.392;9.750;2023-01-28T08:46:21;102334.50;;;2.19;75.24
30636;BME280;17400;52.392;9.750;2023-01-28T08:48:49;102341.16;;;2.26;75.60
30636;BME280;17400;52.392;9.750;2023-01-28T08:51:18;102339.03;;;2.31;74.61
30636;BME280;17400;52.392;9.750;2023-01-28T08:53:45;102341.69;;;2.31;73.93
30636;BME280;17400;52.392;9.750;2023-01-28T08:56:17;102344.91;;;2.36;71.93
30636;BME280;17400;52.392;9.750;2023-01-28T08:58:45;102352.16;;;1.94;72.75
30636;BME280;17400;52.392;9.750;2023-01-28T09:01:13;102347.72;;;2.07;75.80
30636;BME280;17400;52.392;9.750;2023-01-28T09:03:41;102359.28;;;2.21;74.45
30636;BME280;17400;52.392;9.750;2023-01-28T09:06:09;102347.56;;;2.23;73.94
30636;BME280;17400;52.392;9.750;2023-01-28T09:08:37;102358.06;;;2.39;75.17
30636;BME280;17400;52.392;9.750;2023-01-28T09:11:04;102355.94;;;2.44;74.38
30636;BME280;17400;52.392;9.750;2023-01-28T09:13:34;102370.03;;;2.33;73.59
30636;BME280;17400;52.392;9.750;2023-01-28T09:16:04;102369.69;;;2.25;75.27
30636;BME280;17400;52.392;9.750;2023-01-28T09:18:31;102379.50;;;2.25;75.41
30636;BME280;17400;52.392;9.750;2023-01-28T09:20:59;102377.16;;;2.20;76.17
30636;BME280;17400;52.392;9.750;2023-01-28T09:23:27;102380.88;;;2.17;76.31
30636;BME280;17400;52.392;9.750;2023-01-28T09:25:59;102381.63;;;2.20;76.71
30636;BME280;17400;52.392;9.750;2023-01-28T09:28:27;102388.78;;;2.19;77.12
30636;BME280;17400;52.392;9.750;2023-01-28T09:31:02;102386.00;;;2.21;76.95
30636;BME280;17400;52.392;9.750;2023-01-28T09:33:31;102395.34;;;2.28;77.54
30636;BME280;17400;52.392;9.750;2023-01-28T09:36:01;102398.53;;;2.20;77.49
30636;BME280;17400;52.392;9.750;2023-01-28T09:38:31;102400.53;;;2.16;77.22
30636;BME280;17400;52.392;9.750;2023-01-28T09:41:01;102399.25;;;2.09;77.68
30636;BME280;17400;52.392;9.750;2023-01-28T09:43:43;102396.84;;;2.05;78.44
30636;BME280;17400;52.392;9.750;2023-01-28T09:46:16;102386.94;;;2.07;77.68
30636;BME280;17400;52.392;9.750;2023-01-28T09:48:48;102397.53;;;2.08;78.21
30636;BME280;17400;52.392;9.750;2023-01-28T09:51:28;102398.38;;;2.09;77.11
30636;BME280;17400;52.392;9.750;2023-01-28T09:54:01;102403.59;;;2.10;77.25
30636;BME280;17400;52.392;9.750;2023-01-28T09:56:33;102392.19;;;2.08;76.96
30636;BME280;17400;52.392;9.750;2023-01-28T09:59:15;102395.69;;;2.09;77.88
30636;BME280;17400;52.392;9.750;2023-01-28T10:01:49;102402.19;;;2.05;76.94
30636;BME280;17400;52.392;9.750;2023-01-28T10:04:28;102405.81;;;2.04;77.59
30636;BME280;17400;52.392;9.750;2023-01-28T10:07:13;102407.41;;;1.93;75.78
30636;BME280;17400;52.392;9.750;2023-01-28T10:09:48;102405.00;;;1.89;78.52
30636;BME280;17400;52.392;9.750;2023-01-28T10:12:30;102398.97;;;1.99;78.51
30636;BME280;17400;52.392;9.750;2023-01-28T10:15:19;102392.91;;;2.10;77.81
30636;BME280;17400;52.392;9.750;2023-01-28T10:17:52;102400.31;;;2.20;77.58
30636;BME280;17400;52.392;9.750;2023-01-28T10:20:43;102393.13;;;2.07;75.97
30636;BME280;17400;52.392;9.750;2023-01-28T10:23:25;102392.38;;;2.05;76.64
30636;BME280;17400;52.392;9.750;2023-01-28T10:25:59;102384.06;;;2.10;77.26
30636;BME280;17400;52.392;9.750;2023-01-28T10:28:33;102398.25;;;2.10;76.38
30636;BME280;17400;52.392;9.750;2023-01-28T10:31:12;102394.25;;;2.17;77.10
30636;BME280;17400;52.392;9.750;2023-01-28T10:33:41;102381.63;;;2.20;75.59
30636;BME280;17400;52.392;9.750;2023-01-28T10:36:09;102371.91;;;2.19;74.68
30636;BME280;17400;52.392;9.750;2023-01-28T10:38:38;102385.38;;;2.17;74.73
30636;BME280;17400;52.392;9.750;2023-01-28T10:41:09;102391.69;;;2.16;75.15
30636;BME280;17400;52.392;9.750;2023-01-28T10:43:40;102396.25;;;2.14;75.68
30636;BME280;17400;52.392;9.750;2023-01-28T10:46:11;102393.09;;;2.22;75.66
30636;BME280;17400;52.392;9.750;2023-01-28T10:48:43;102387.75;;;2.22;73.78
30636;BME280;17400;52.392;9.750;2023-01-28T10:51:17;102390.66;;;2.31;75.41
30636;BME280;17400;52.392;9.750;2023-01-28T10:53:50;102394.19;;;2.32;75.08
30636;BME280;17400;52.392;9.750;2023-01-28T10:56:24;102400.53;;;2.16;74.16
30636;BME280;17400;52.392;9.750;2023-01-28T10:58:57;102399.41;;;2.06;74.91
30636;BME280;17400;52.392;9.750;2023-01-28T11:01:41;102401.69;;;2.12;75.62
30636;BME280;17400;52.392;9.750;2023-01-28T11:04:17;102402.25;;;2.17;75.56
30636;BME280;17400;52.392;9.750;2023-01-28T11:06:53;102399.25;;;2.09;74.07
30636;BME280;17400;52.392;9.750;2023-01-28T11:09:26;102392.56;;;2.02;74.06
30636;BME280;17400;52.392;9.750;2023-01-28T11:11:58;102385.13;;;2.07;74.89
30636;BME280;17400;52.392;9.750;2023-01-28T11:14:36;102383.25;;;2.22;75.23
30636;BME280;17400;52.392;9.750;2023-01-28T11:17:12;102378.00;;;2.21;73.53
30636;BME280;17400;52.392;9.750;2023-01-28T11:19:42;102387.75;;;2.22;73.65
30636;BME280;17400;52.392;9.750;2023-01-28T11:22:23;102385.66;;;2.12;72.30
30636;BME280;17400;52.392;9.750;2023-01-28T11:24:57;102381.78;;;2.04;72.62
30636;BME280;17400;52.392;9.750;2023-01-28T11:27:28;102388.94;;;2.03;72.32
30636;BME280;17400;52.392;9.750;2023-01-28T11:29:59;102386.28;;;2.03;72.12
30636;BME280;17400;52.392;9.750;2023-01-28T11:32:29;102393.13;;;2.07;73.02
30636;BME280;17400;52.392;9.750;2023-01-28T11:34:58;102377.09;;;2.07;72.67
30636;BME280;17400;52.392;9.750;2023-01-28T11:37:27;102372.75;;;2.19;74.07
30636;BME280;17400;52.392;9.750;2023-01-28T11:40:03;102369.25;;;2.31;73.05
30636;BME280;17400;52.392;9.750;2023-01-28T11:42:50;102371.66;;;2.36;71.15
30636;BME280;17400;52.392;9.750;2023-01-28T11:45:19;102358.38;;;2.35;69.94
30636;BME280;17400;52.392;9.750;2023-01-28T11:48:01;102354.66;;;2.37;72.01
30636;BME280;17400;52.392;9.750;2023-01-28T11:50:38;102343.25;;;2.48;71.72
30636;BME280;17400;52.392;9.750;2023-01-28T11:53:21;102345.25;;;2.44;69.89
30636;BME280;17400;52.392;9.750;2023-01-28T11:56:02;102339.06;;;2.44;71.05
30636;BME280;17400;52.392;9.750;2023-01-28T11:58:40;102338.63;;;2.50;71.19
30636;BME280;17400;52.392;9.750;2023-01-28T12:01:18;102325.41;;;2.74;71.81
30636;BME280;17400;52.392;9.750;2023-01-28T12:04:00;102327.97;;;2.76;69.20
30636;BME280;17400;52.392;9.750;2023-01-28T12:06:52;102331.94;;;2.70;68.94
30636;BME280;17400;52.392;9.750;2023-01-28T12:09:28;102333.13;;;2.66;69.44
30636;BME280;17400;52.392;9.750;2023-01-28T12:12:28;102325.94;;;2.66;70.50
30636;BME280;17400;52.392;9.750;2023-01-28T12:15:21;102317.69;;;2.70;71.72
30636;BME280;17400;52.392;9.750;2023-01-28T12:18:03;102313.94;;;2.72;71.08
30636;BME280;17400;52.392;9.750;2023-01-28T12:20:40;102290.94;;;2.70;70.93
30636;BME280;17400;52.392;9.750;2023-01-28T12:23:30;102281.31;;;2.67;71.32
30636;BME280;17400;52.392;9.750;2023-01-28T12:26:05;102262.84;;;2.77;72.12
30636;BME280;17400;52.392;9.750;2023-01-28T12:28:47;102247.75;;;2.89;70.49
30636;BME280;17400;52.392;9.750;2023-01-28T12:31:32;102237.22;;;3.11;69.78
30636;BME280;17400;52.392;9.750;2023-01-28T12:34:23;102223.16;;;3.21;67.00
30636;BME280;17400;52.392;9.750;2023-01-28T12:37:06;102223.00;;;3.35;67.33
30636;BME280;17400;52.392;9.750;2023-01-28T12:39:47;102212.44;;;3.33;66.25
30636;BME280;17400;52.392;9.750;2023-01-28T12:42:24;102208.19;;;3.42;65.40
30636;BME280;17400;52.392;9.750;2023-01-28T12:45:00;102206.94;;;3.35;65.00
30636;BME280;17400;52.392;9.750;2023-01-28T12:47:35;102204.16;;;3.12;64.43
30636;BME280;17400;52.392;9.750;2023-01-28T12:50:11;102195.03;;;3.15;64.62
30636;BME280;17400;52.392;9.750;2023-01-28T12:52:44;102203.56;;;3.20;64.72
30636;BME280;17400;52.392;9.750;2023-01-28T12:55:19;102208.91;;;3.20;64.91
30636;BME280;17400;52.392;9.750;2023-01-28T12:57:49;102221.16;;;3.11;65.52
30636;BME280;17400;52.392;9.750;2023-01-28T13:00:25;102231.88;;;2.98;66.53
30636;BME280;17400;52.392;9.750;2023-01-28T13:03:10;102228.66;;;3.06;67.15
30636;BME280;17400;52.392;9.750;2023-01-28T13:05:48;102213.03;;;3.00;66.88
30636;BME280;17400;52.392;9.750;2023-01-28T13:08:22;102201.09;;;2.93;66.52
30636;BME280;17400;52.392;9.750;2023-01-28T13:10:54;102203.47;;;2.85;66.92
30636;BME280;17400;52.392;9.750;2023-01-28T13:13:29;102221.84;;;2.89;67.23
30636;BME280;17400;52.392;9.750;2023-01-28T13:16:03;102217.25;;;2.78;67.29
30636;BME280;17400;52.392;9.750;2023-01-28T13:18:34;102224.66;;;2.49;68.93
30636;BME280;17400;52.392;9.750;2023-01-28T13:21:14;102234.78;;;2.31;73.15
30636;BME280;17400;52.392;9.750;2023-01-28T13:23:45;102227.00;;;2.41;71.93
30636;BME280;17400;52.392;9.750;2023-01-28T13:26:28;102243.78;;;2.30;74.40
30636;BME280;17400;52.392;9.750;2023-01-28T13:29:16;102247.72;;;2.50;74.79
30636;BME280;17400;52.392;9.750;2023-01-28T13:31:51;102272.34;;;2.42;73.48